createdAt,value
2019-03-24T00:00:08.331Z,81.50
2019-03-24T00:02:36.927Z,82.00
2019-03-24T00:05:07.503Z,81.80
2019-03-24T00:07:35.965Z,81.70
2019-03-24T00:10:07.048Z,81.60
2019-03-24T00:12:35.507Z,81.60
2019-03-24T00:15:06.569Z,81.70
2019-03-24T00:17:42.646Z,81.80
2019-03-24T00:20:11.598Z,82.50
2019-03-24T00:22:40.500Z,82.50
2019-03-24T00:25:12.075Z,82.80
2019-03-24T00:27:46.435Z,83.00
2019-03-24T00:30:19.939Z,83.00
2019-03-24T00:32:48.411Z,82.80
2019-03-24T00:35:16.965Z,83.10
2019-03-24T00:37:45.559Z,83.20
2019-03-24T00:40:14.992Z,83.40
2019-03-24T00:42:43.948Z,83.60
2019-03-24T00:45:13.056Z,83.50
2019-03-24T00:47:41.899Z,83.20
2019-03-24T00:50:11.009Z,82.80
2019-03-24T00:52:39.472Z,82.60
2019-03-24T00:55:08.599Z,82.50
2019-03-24T00:57:37.687Z,82.40
2019-03-24T01:00:09.394Z,82.50
2019-03-24T01:02:57.208Z,82.30
2019-03-24T01:05:25.794Z,82.10
2019-03-24T01:07:54.717Z,82.30
2019-03-24T01:10:23.177Z,82.40
2019-03-24T01:12:51.646Z,82.50
2019-03-24T01:15:20.141Z,82.50
2019-03-24T01:17:48.722Z,82.50
2019-03-24T01:20:17.370Z,82.50
2019-03-24T01:22:45.842Z,82.60
2019-03-24T01:25:14.458Z,82.60
2019-03-24T01:27:42.979Z,82.40
2019-03-24T01:30:12.068Z,82.30
2019-03-24T01:32:40.612Z,82.40
2019-03-24T01:35:10.313Z,82.40
2019-03-24T01:37:38.770Z,82.40
2019-03-24T01:40:07.670Z,82.50
2019-03-24T01:42:36.506Z,82.50
2019-03-24T01:45:12.141Z,83.20
2019-03-24T01:47:40.618Z,82.70
2019-03-24T01:50:10.730Z,82.70
2019-03-24T01:52:39.273Z,82.70
2019-03-24T01:55:08.654Z,82.70
2019-03-24T01:57:37.480Z,82.50
2019-03-24T02:00:08.305Z,82.60
2019-03-24T02:02:36.767Z,82.90
2019-03-24T02:05:07.144Z,82.90
2019-03-24T02:07:35.696Z,83.10
2019-03-24T02:10:07.022Z,83.10
2019-03-24T02:12:35.513Z,83.10
2019-03-24T02:15:07.125Z,83.20
2019-03-24T02:17:35.675Z,83.00
2019-03-24T02:20:06.554Z,83.10
2019-03-24T02:22:35.042Z,83.20
2019-03-24T02:25:05.966Z,83.10
2019-03-24T02:27:34.665Z,83.10
2019-03-24T02:30:04.204Z,83.20
2019-03-24T02:32:32.835Z,83.20
2019-03-24T02:35:01.354Z,83.40
2019-03-24T02:37:29.927Z,83.40
2019-03-24T02:39:58.545Z,83.40
2019-03-24T02:42:27.047Z,83.40
2019-03-24T02:44:55.917Z,83.40
2019-03-24T02:47:24.386Z,83.50
2019-03-24T02:49:53.324Z,83.60
2019-03-24T02:52:21.774Z,83.70
2019-03-24T02:54:50.241Z,84.00
2019-03-24T02:57:18.799Z,84.00
2019-03-24T02:59:47.440Z,83.90
2019-03-24T03:02:16.001Z,83.80
2019-03-24T03:04:44.804Z,83.90
2019-03-24T03:07:13.405Z,83.90
2019-03-24T03:09:41.946Z,84.00
2019-03-24T03:12:10.615Z,84.00
2019-03-24T03:14:39.545Z,84.10
2019-03-24T03:17:09.622Z,84.20
2019-03-24T03:19:38.561Z,84.30
2019-03-24T03:22:07.020Z,84.50
2019-03-24T03:24:35.578Z,84.50
2019-03-24T03:27:05.475Z,84.50
2019-03-24T03:29:34.233Z,84.60
2019-03-24T03:32:02.740Z,84.80
2019-03-24T03:34:31.347Z,85.00
2019-03-24T03:36:59.816Z,85.00
2019-03-24T03:39:28.266Z,85.00
2019-03-24T03:41:57.044Z,84.90
2019-03-24T03:44:25.752Z,84.70
2019-03-24T03:46:54.352Z,84.60
2019-03-24T03:49:22.826Z,84.60
2019-03-24T03:51:51.393Z,84.70
2019-03-24T03:54:19.868Z,84.60
2019-03-24T03:56:48.817Z,84.50
2019-03-24T03:59:17.354Z,84.60
2019-03-24T04:01:45.844Z,84.70
2019-03-24T04:04:14.605Z,84.70
2019-03-24T04:06:43.169Z,84.90
2019-03-24T04:09:11.727Z,84.90
2019-03-24T04:11:40.266Z,84.90
2019-03-24T04:14:09.261Z,84.80
2019-03-24T04:16:37.890Z,84.80
2019-03-24T04:19:06.415Z,84.80
2019-03-24T04:21:34.869Z,84.80
2019-03-24T04:24:04.945Z,84.80
2019-03-24T04:26:33.501Z,84.90
2019-03-24T04:29:01.973Z,84.90
2019-03-24T04:31:30.701Z,85.00
2019-03-24T04:33:59.255Z,85.20
2019-03-24T04:36:27.792Z,85.20
2019-03-24T04:38:56.260Z,85.30
2019-03-24T04:41:25.125Z,85.60
2019-03-24T04:43:53.653Z,85.60
2019-03-24T04:46:22.207Z,86.30
2019-03-24T04:48:50.669Z,85.60
2019-03-24T04:51:19.259Z,85.70
2019-03-24T04:53:47.728Z,85.60
2019-03-24T04:56:16.310Z,85.60
2019-03-24T04:58:45.610Z,85.50
2019-03-24T05:01:14.084Z,85.50
2019-03-24T05:03:42.627Z,85.80
2019-03-24T05:06:12.286Z,86.10
2019-03-24T05:08:41.580Z,86.60
2019-03-24T05:11:10.219Z,86.80
2019-03-24T05:13:38.706Z,86.80
2019-03-24T05:16:07.185Z,87.10
2019-03-24T05:18:35.682Z,87.30
2019-03-24T05:21:05.073Z,87.20
2019-03-24T05:23:33.603Z,87.10
2019-03-24T05:26:02.225Z,87.10
2019-03-24T05:28:30.692Z,87.10
2019-03-24T05:30:59.170Z,87.20
2019-03-24T05:33:28.217Z,87.50
2019-03-24T05:35:56.763Z,87.60
2019-03-24T05:38:25.222Z,87.20
2019-03-24T05:40:54.506Z,87.00
2019-03-24T05:43:22.996Z,87.70
2019-03-24T05:45:51.898Z,86.50
2019-03-24T05:48:20.349Z,86.50
2019-03-24T05:50:48.826Z,86.50
2019-03-24T05:53:17.364Z,86.30
2019-03-24T05:55:45.920Z,86.40
2019-03-24T05:58:14.405Z,86.50
2019-03-24T06:00:43.193Z,86.50
2019-03-24T06:03:11.657Z,85.50
2019-03-24T06:05:40.137Z,86.20
2019-03-24T06:08:08.603Z,86.20
2019-03-24T06:10:37.316Z,86.00
2019-03-24T06:13:05.841Z,85.70
2019-03-24T06:15:34.674Z,85.50
2019-03-24T06:18:03.159Z,85.30
2019-03-24T06:20:31.701Z,85.20
2019-03-24T06:23:00.254Z,85.20
2019-03-24T06:25:28.728Z,85.40
2019-03-24T06:27:57.272Z,85.40
2019-03-24T06:30:27.655Z,85.30
2019-03-24T06:32:56.192Z,85.40
2019-03-24T06:35:26.321Z,85.40
2019-03-24T06:37:54.908Z,85.50
2019-03-24T06:40:23.366Z,85.60
2019-03-24T06:42:52.073Z,85.70
2019-03-24T06:45:28.342Z,85.70
2019-03-24T06:47:57.891Z,85.80
2019-03-24T06:50:21.751Z,85.80
2019-03-24T06:52:51.016Z,85.90
2019-03-24T06:55:19.948Z,86.00
2019-03-24T06:57:48.433Z,86.00
2019-03-24T07:00:17.162Z,86.40
2019-03-24T07:02:45.654Z,86.70
2019-03-24T07:05:14.507Z,87.00
2019-03-24T07:07:43.006Z,87.10
2019-03-24T07:10:13.453Z,87.20
2019-03-24T07:12:41.925Z,87.00
2019-03-24T07:15:11.328Z,87.10
2019-03-24T07:17:39.896Z,87.30
2019-03-24T07:20:09.004Z,87.40
2019-03-24T07:22:37.598Z,87.30
2019-03-24T07:25:07.110Z,87.60
2019-03-24T07:27:35.986Z,87.60
2019-03-24T07:30:08.135Z,87.60
2019-03-24T07:32:36.659Z,87.80
2019-03-24T07:35:07.014Z,87.60
2019-03-24T07:37:35.957Z,87.60
2019-03-24T07:40:08.665Z,87.80
2019-03-24T07:42:37.291Z,87.80
2019-03-24T07:45:07.562Z,87.80
2019-03-24T07:47:36.108Z,87.80
2019-03-24T07:50:09.548Z,87.60
2019-03-24T07:52:39.560Z,87.60
2019-03-24T07:55:08.477Z,87.70
2019-03-24T07:57:37.026Z,87.60
2019-03-24T08:00:07.892Z,87.70
2019-03-24T08:02:36.361Z,87.70
2019-03-24T08:05:05.973Z,87.60
2019-03-24T08:07:34.581Z,87.40
2019-03-24T08:10:04.306Z,87.30
2019-03-24T08:12:33.062Z,86.10
2019-03-24T08:15:01.617Z,81.50
2019-03-24T08:17:30.402Z,78.00
2019-03-24T08:19:59.381Z,75.90
2019-03-24T08:22:28.105Z,75.70
2019-03-24T08:24:56.725Z,73.40
2019-03-24T08:27:25.210Z,71.20
2019-03-24T08:29:54.061Z,70.50
2019-03-24T08:32:22.560Z,70.30
2019-03-24T08:34:51.144Z,69.80
2019-03-24T08:37:21.374Z,69.60
2019-03-24T08:39:49.945Z,69.30
2019-03-24T08:42:18.424Z,69.80
2019-03-24T08:44:46.972Z,70.40
2019-03-24T08:47:15.450Z,70.80
2019-03-24T08:49:44.163Z,70.30
2019-03-24T08:52:12.746Z,70.70
2019-03-24T08:54:41.280Z,70.10
2019-03-24T08:57:09.822Z,70.10
2019-03-24T08:59:38.310Z,70.40
2019-03-24T09:02:07.025Z,70.20
2019-03-24T09:04:35.521Z,70.90
2019-03-24T09:07:06.467Z,70.40
2019-03-24T09:09:35.263Z,70.90
2019-03-24T09:12:05.114Z,71.10
2019-03-24T09:14:33.970Z,71.10
2019-03-24T09:17:02.576Z,70.90
2019-03-24T09:19:31.169Z,71.00
2019-03-24T09:22:00.040Z,71.20
2019-03-24T09:24:28.509Z,70.40
2019-03-24T09:26:57.127Z,70.20
2019-03-24T09:29:25.694Z,70.80
2019-03-24T09:31:54.262Z,70.40
2019-03-24T09:34:22.818Z,71.00
2019-03-24T09:36:54.026Z,70.90
2019-03-24T09:39:22.934Z,69.60
2019-03-24T09:41:51.829Z,68.90
2019-03-24T09:44:20.282Z,68.40
2019-03-24T09:46:48.773Z,67.90
2019-03-24T09:49:17.587Z,68.20
2019-03-24T09:51:46.234Z,68.70
2019-03-24T09:54:15.108Z,69.30
2019-03-24T09:56:43.590Z,69.00
2019-03-24T09:59:12.188Z,69.00
2019-03-24T10:01:41.273Z,69.30
2019-03-24T10:04:09.796Z,69.10
2019-03-24T10:06:38.303Z,68.60
2019-03-24T10:09:07.559Z,69.10
2019-03-24T10:11:36.987Z,68.90
2019-03-24T10:14:05.682Z,68.50
2019-03-24T10:16:34.147Z,67.90
2019-03-24T10:19:13.276Z,67.50
2019-03-24T10:21:32.997Z,66.90
2019-03-24T10:24:01.521Z,66.80
2019-03-24T10:26:29.987Z,66.70
2019-03-24T10:28:58.467Z,66.40
2019-03-24T10:31:27.203Z,66.40
2019-03-24T10:33:55.672Z,66.30
2019-03-24T10:36:24.152Z,66.10
2019-03-24T10:38:52.911Z,66.30
2019-03-24T10:41:21.460Z,66.60
2019-03-24T10:43:51.533Z,65.60
2019-03-24T10:46:20.170Z,65.00
2019-03-24T10:48:48.819Z,65.50
2019-03-24T10:51:17.283Z,65.60
2019-03-24T10:53:45.782Z,65.50
2019-03-24T10:56:14.251Z,65.00
2019-03-24T10:58:42.719Z,65.20
2019-03-24T11:01:11.202Z,65.70
2019-03-24T11:03:40.703Z,65.90
2019-03-24T11:06:09.175Z,65.70
2019-03-24T11:08:37.872Z,65.30
2019-03-24T11:11:06.455Z,65.20
2019-03-24T11:13:34.943Z,65.80
2019-03-24T11:16:03.418Z,65.50
2019-03-24T11:18:31.897Z,64.40
2019-03-24T11:21:00.465Z,64.50
2019-03-24T11:23:30.571Z,64.00
2019-03-24T11:43:00.281Z,64.00
2019-03-24T11:45:28.830Z,60.00
2019-03-24T11:47:57.296Z,60.00
2019-03-24T11:50:28.555Z,59.20
2019-03-24T11:52:57.126Z,59.50
2019-03-24T11:55:25.811Z,60.20
2019-03-24T11:58:05.094Z,60.10
2019-03-24T12:00:36.805Z,60.40
2019-03-24T12:03:08.710Z,59.40
2019-03-24T12:05:37.777Z,59.40
2019-03-24T12:08:06.549Z,59.50
2019-03-24T12:10:35.287Z,59.40
2019-03-24T12:13:05.208Z,59.60
2019-03-24T12:15:33.831Z,59.80
2019-03-24T12:18:02.310Z,59.80
2019-03-24T12:20:30.820Z,59.80
2019-03-24T12:22:59.355Z,59.80
2019-03-24T12:25:27.814Z,61.40
2019-03-24T12:27:57.155Z,60.60
2019-03-24T12:30:25.702Z,60.10
2019-03-24T12:32:54.626Z,59.90
2019-03-24T12:35:23.297Z,59.80
2019-03-24T12:37:52.040Z,59.90
2019-03-24T12:40:20.578Z,60.00
2019-03-24T12:42:49.129Z,59.90
2019-03-24T12:45:17.770Z,59.50
2019-03-24T12:47:46.661Z,59.50
2019-03-24T12:50:15.686Z,59.70
2019-03-24T12:52:44.441Z,59.90
2019-03-24T12:55:13.679Z,58.90
2019-03-24T12:57:44.176Z,58.50
2019-03-24T13:00:13.561Z,58.60
2019-03-24T13:02:42.270Z,58.80
2019-03-24T13:05:13.374Z,58.50
2019-03-24T13:07:42.289Z,58.20
2019-03-24T13:10:10.856Z,57.50
2019-03-24T13:12:39.388Z,57.70
2019-03-24T13:15:12.986Z,57.70
2019-03-24T13:17:41.905Z,57.90
2019-03-24T13:20:20.235Z,57.60
2019-03-24T13:22:41.212Z,57.00
2019-03-24T13:25:10.418Z,56.60
2019-03-24T13:27:38.978Z,56.80
2019-03-24T13:30:08.207Z,56.40
2019-03-24T13:32:36.769Z,56.20
2019-03-24T13:35:06.600Z,56.20
2019-03-24T13:37:35.781Z,56.10
2019-03-24T13:40:05.727Z,56.40
2019-03-24T13:42:34.402Z,56.00
2019-03-24T13:45:02.961Z,56.10
2019-03-24T13:47:31.529Z,56.20
2019-03-24T13:50:00.187Z,56.20
2019-03-24T13:52:28.878Z,56.30
2019-03-24T13:54:57.469Z,56.30
2019-03-24T13:57:26.021Z,56.10
2019-03-24T13:59:54.494Z,56.10
2019-03-24T14:02:23.058Z,56.20
2019-03-24T14:04:52.049Z,55.90
2019-03-24T14:07:20.518Z,56.30
2019-03-24T14:09:49.438Z,56.60
2019-03-24T14:12:18.049Z,56.40
2019-03-24T14:14:46.616Z,56.20
2019-03-24T14:17:15.484Z,55.80
2019-03-24T14:19:43.970Z,55.90
2019-03-24T14:22:12.452Z,55.60
2019-03-24T14:24:40.989Z,55.10
2019-03-24T14:27:09.462Z,54.20
2019-03-24T14:29:38.322Z,54.20
2019-03-24T14:32:07.265Z,53.50
2019-03-24T14:34:35.766Z,54.10
2019-03-24T14:37:04.727Z,54.70
2019-03-24T14:39:33.517Z,54.70
2019-03-24T14:42:01.995Z,53.90
2019-03-24T14:44:30.462Z,54.00
2019-03-24T14:46:59.006Z,53.50
2019-03-24T14:49:27.662Z,53.90
2019-03-24T14:51:56.143Z,53.60
2019-03-24T14:54:24.626Z,54.10
2019-03-24T14:56:53.250Z,54.30
2019-03-24T14:59:21.780Z,54.40
2019-03-24T15:01:50.245Z,53.50
2019-03-24T15:04:18.714Z,53.00
2019-03-24T15:06:47.178Z,53.00
2019-03-24T15:09:15.953Z,52.90
2019-03-24T15:11:44.488Z,52.80
2019-03-24T15:14:12.962Z,52.70
2019-03-24T15:16:41.446Z,51.70
2019-03-24T15:19:09.911Z,51.50
2019-03-24T15:21:38.591Z,50.90
2019-03-24T15:24:07.146Z,50.90
2019-03-24T15:26:35.708Z,51.50
2019-03-24T15:29:05.455Z,51.70
2019-03-24T15:31:34.339Z,52.10
2019-03-24T15:34:02.802Z,52.20
2019-03-24T15:36:33.003Z,52.20
2019-03-24T15:39:01.497Z,52.20
2019-03-24T15:41:30.051Z,52.00
2019-03-24T15:43:58.579Z,51.90
2019-03-24T15:46:27.457Z,52.30
2019-03-24T15:48:55.926Z,51.60
2019-03-24T15:51:24.758Z,51.80
2019-03-24T15:53:53.615Z,52.20
2019-03-24T15:56:28.008Z,52.70
2019-03-24T15:59:01.998Z,52.30
2019-03-24T16:01:30.929Z,52.10
2019-03-24T16:03:59.665Z,52.20
2019-03-24T16:06:28.155Z,52.00
2019-03-24T16:08:56.808Z,52.10
2019-03-24T16:11:25.345Z,52.30
2019-03-24T16:13:53.904Z,52.60
2019-03-24T16:16:23.176Z,52.50
2019-03-24T16:18:52.005Z,52.70
2019-03-24T16:21:27.667Z,52.50
2019-03-24T16:23:50.699Z,52.40
2019-03-24T16:26:19.234Z,52.60
2019-03-24T16:28:47.746Z,53.00
2019-03-24T16:31:16.292Z,53.00
2019-03-24T16:33:44.828Z,53.20
2019-03-24T16:36:13.793Z,53.10
2019-03-24T16:38:48.845Z,53.20
2019-03-24T16:41:13.293Z,53.60
2019-03-24T16:43:41.765Z,53.70
2019-03-24T16:46:10.533Z,53.90
2019-03-24T16:48:39.007Z,54.90
2019-03-24T16:51:07.462Z,54.10
2019-03-24T16:53:35.953Z,54.10
2019-03-24T16:56:04.678Z,53.80
2019-03-24T16:58:33.214Z,53.90
2019-03-24T17:01:02.208Z,54.00
2019-03-24T17:03:30.674Z,54.20
2019-03-24T17:05:59.146Z,54.20
2019-03-24T17:08:27.628Z,54.20
2019-03-24T17:10:59.731Z,54.20
2019-03-24T17:13:36.876Z,54.20
2019-03-24T17:16:02.645Z,54.20
2019-03-24T17:18:31.194Z,54.10
2019-03-24T17:20:59.665Z,54.30
2019-03-24T17:23:28.174Z,54.40
2019-03-24T17:25:56.714Z,55.30
2019-03-24T17:28:26.926Z,54.80
2019-03-24T17:30:55.553Z,55.00
2019-03-24T17:33:24.011Z,55.20
2019-03-24T17:35:53.077Z,55.20
2019-03-24T17:38:21.986Z,55.40
2019-03-24T17:40:50.465Z,55.60
2019-03-24T17:43:19.406Z,55.70
2019-03-24T17:45:47.892Z,55.70
2019-03-24T17:48:16.535Z,55.90
2019-03-24T17:50:45.267Z,56.10
2019-03-24T17:53:14.122Z,56.30
2019-03-24T17:55:43.166Z,56.50
2019-03-24T17:58:11.632Z,56.90
2019-03-24T18:00:48.807Z,56.90
2019-03-24T18:03:17.430Z,57.10
2019-03-24T18:05:46.050Z,57.20
2019-03-24T18:08:14.717Z,57.40
2019-03-24T18:10:43.321Z,57.50
2019-03-24T18:13:11.823Z,57.80
2019-03-24T18:15:40.529Z,57.90
2019-03-24T18:18:09.089Z,58.10
2019-03-24T18:20:37.703Z,58.30
2019-03-24T18:23:06.388Z,58.40
2019-03-24T18:25:34.865Z,58.50
2019-03-24T18:28:03.407Z,58.50
2019-03-24T18:30:32.149Z,58.60
2019-03-24T18:33:00.641Z,58.70
2019-03-24T18:35:29.109Z,58.60
2019-03-24T18:37:57.667Z,58.60
2019-03-24T18:40:26.198Z,58.70
2019-03-24T18:42:54.789Z,58.90
2019-03-24T18:45:24.801Z,58.90
2019-03-24T18:47:53.310Z,59.00
2019-03-24T18:50:21.856Z,59.10
2019-03-24T18:52:50.361Z,59.40
2019-03-24T18:55:18.928Z,59.30
2019-03-24T18:57:47.938Z,59.40
2019-03-24T19:00:16.980Z,59.60
2019-03-24T19:02:45.514Z,59.80
2019-03-24T19:05:14.317Z,60.10
2019-03-24T19:07:42.812Z,60.30
2019-03-24T19:10:12.613Z,60.70
2019-03-24T19:12:41.173Z,60.90
2019-03-24T19:15:12.444Z,61.70
2019-03-24T19:17:41.159Z,61.10
2019-03-24T19:20:10.755Z,61.20
2019-03-24T19:22:42.935Z,61.40
2019-03-24T19:25:12.039Z,61.60
2019-03-24T19:27:40.628Z,61.50
2019-03-24T19:30:17.428Z,62.40
2019-03-24T19:32:46.452Z,61.80
2019-03-24T19:35:16.452Z,62.10
2019-03-24T19:37:46.628Z,62.20
2019-03-24T19:40:29.760Z,62.00
2019-03-24T19:42:58.402Z,62.00
2019-03-24T19:45:30.401Z,61.80
2019-03-24T19:47:59.446Z,62.00
2019-03-24T19:50:27.982Z,62.00
2019-03-24T19:52:56.538Z,62.30
2019-03-24T19:55:25.121Z,62.60
2019-03-24T19:57:53.745Z,62.90
2019-03-24T20:00:22.286Z,63.10
2019-03-24T20:02:50.757Z,63.10
2019-03-24T20:05:19.488Z,63.40
2019-03-24T20:07:48.499Z,63.60
2019-03-24T20:10:17.232Z,63.90
2019-03-24T20:12:46.063Z,64.10
2019-03-24T20:15:15.306Z,64.40
2019-03-24T20:17:48.719Z,64.50
2019-03-24T20:20:18.058Z,65.00
2019-03-24T20:22:56.476Z,65.30
2019-03-24T20:25:20.626Z,65.10
2019-03-24T20:27:49.316Z,65.10
2019-03-24T20:30:18.824Z,65.20
2019-03-24T20:32:53.837Z,65.40
2019-03-24T20:35:25.975Z,65.70
2019-03-24T20:38:00.302Z,65.80
2019-03-24T20:40:34.740Z,65.90
2019-03-24T20:43:06.496Z,65.90
2019-03-24T20:45:39.474Z,65.80
2019-03-24T20:48:08.778Z,65.70
2019-03-24T20:50:42.344Z,65.70
2019-03-24T20:53:29.912Z,65.90
2019-03-24T20:56:01.575Z,66.00
2019-03-24T20:58:32.685Z,66.20
2019-03-24T21:01:01.163Z,66.10
2019-03-24T21:03:29.713Z,66.00
2019-03-24T21:05:58.196Z,66.10
2019-03-24T21:08:26.716Z,66.20
2019-03-24T21:10:55.220Z,66.60
2019-03-24T21:13:23.758Z,66.70
2019-03-24T21:15:52.301Z,66.70
2019-03-24T21:18:20.777Z,66.90
2019-03-24T21:20:49.347Z,67.10
2019-03-24T21:26:07.662Z,67.40
2019-03-24T21:28:36.469Z,68.20
2019-03-24T21:31:05.842Z,67.50
2019-03-24T21:33:34.303Z,67.70
2019-03-24T21:36:02.901Z,67.50
2019-03-24T21:38:31.388Z,67.60
2019-03-24T21:40:59.930Z,67.70
2019-03-24T21:43:31.881Z,67.90
2019-03-24T21:46:10.923Z,67.90
2019-03-24T21:48:36.827Z,67.90
2019-03-24T21:51:05.812Z,68.20
2019-03-24T21:53:40.677Z,68.50
2019-03-24T21:56:05.196Z,68.40
2019-03-24T21:58:33.760Z,68.70
2019-03-24T22:01:02.303Z,69.00
2019-03-24T22:03:30.837Z,69.10
2019-03-24T22:05:59.381Z,69.30
2019-03-24T22:08:29.883Z,69.40
2019-03-24T22:10:58.443Z,69.60
2019-03-24T22:13:26.981Z,69.80
2019-03-24T22:15:55.533Z,70.10
2019-03-24T22:18:24.015Z,71.00
2019-03-24T22:20:52.781Z,70.10
2019-03-24T22:23:51.962Z,70.00
2019-03-24T22:26:15.856Z,70.10
2019-03-24T22:28:44.725Z,70.00
2019-03-24T22:31:13.276Z,70.40
2019-03-24T22:33:42.121Z,71.30
2019-03-24T22:36:11.191Z,70.70
2019-03-24T22:38:39.801Z,70.80
2019-03-24T22:41:17.219Z,70.90
2019-03-24T22:43:45.691Z,70.90
2019-03-24T22:46:14.159Z,71.00
2019-03-24T22:48:42.638Z,71.10
2019-03-24T22:51:11.098Z,71.30
2019-03-24T22:53:39.668Z,71.50
2019-03-24T22:56:08.148Z,71.40
2019-03-24T22:58:36.674Z,71.50
2019-03-24T23:01:05.522Z,71.70
2019-03-24T23:03:34.051Z,71.70
2019-03-24T23:06:02.599Z,71.80
2019-03-24T23:08:31.062Z,71.90
2019-03-24T23:10:59.598Z,71.90
2019-03-24T23:13:28.054Z,72.00
2019-03-24T23:15:56.533Z,72.20
2019-03-24T23:18:25.100Z,72.30
2019-03-24T23:20:53.586Z,72.50
2019-03-24T23:23:22.157Z,72.70
2019-03-24T23:25:50.911Z,72.70
2019-03-24T23:28:19.846Z,73.60
2019-03-24T23:30:48.316Z,72.90
2019-03-24T23:33:16.840Z,72.90
2019-03-24T23:35:45.470Z,72.90
2019-03-24T23:38:13.936Z,73.10
2019-03-24T23:40:42.416Z,73.20
2019-03-24T23:43:11.418Z,73.40
2019-03-24T23:45:40.354Z,73.50
2019-03-24T23:48:08.845Z,73.80
2019-03-24T23:50:37.408Z,73.50
2019-03-24T23:53:06.009Z,73.60
2019-03-24T23:55:34.555Z,73.80
2019-03-24T23:58:03.080Z,74.00
